sim
Sign-in with your pilot id or email,
or register
Callsign
Passwort

Schedule Details

Flight Number: DLH811 (1)
Departure: Gothenburg Landvetter Airport (ESGG) at 10:50
Arrival: Frankfurt Airport (EDDF) at 12:30
Route: Lufthansa Passenger Schedule. Enter filed route here before submitting Pirep.

Weather Information
Getting current METAR information for ESGG 251220Z 20024KT 7000 -RA SCT005 BKN007 11/10 Q0998
Getting current METAR information for EDDF 251220Z 17010KT 9999 FEW027 16/09 Q1006 NOSIG

Schedule Frequency

Route Map